Terminal Aerodrome Forecast
Issued by NWS Tampa Bay Area, FL

Home | Current Version | Previous Version | Text Only | Print | Product List | Glossary On
Versions: 1 2 3 4 5 6 7 8 9 10 11 12 13 14 15
000
FTUS42 KTBW 280522
TAFSRQ
TAF
KSRQ 280522Z 2806/2906 11005KT P6SM FEW030 BKN200
     FM280900 13005KT P6SM VCTS SCT035CB
     FM281200 10007KT P6SM VCTS SCT035CB BKN150
     FM281700 VRB03KT P6SM VCTS SCT040CB BKN200
     FM290300 VRB03KT P6SM BKN200=

USA.gov is the U.S. government's official web portal to all federal, state and local government web resources and services.